sensor_id;sensor_type;location;lat;lon;timestamp;P1;durP1;ratioP1;P2;durP2;ratioP2
19364;SDS011;9818;48.382;10.850;2023-04-12T00:00:10;2.90;;;2.10;;
19364;SDS011;9818;48.382;10.850;2023-04-12T00:02:39;2.57;;;2.00;;
19364;SDS011;9818;48.382;10.850;2023-04-12T00:05:08;2.37;;;2.00;;
19364;SDS011;9818;48.382;10.850;2023-04-12T00:07:38;3.87;;;2.07;;
19364;SDS011;9818;48.382;10.850;2023-04-12T00:10:13;2.47;;;2.10;;
19364;SDS011;9818;48.382;10.850;2023-04-12T00:12:42;3.17;;;2.03;;
19364;SDS011;9818;48.382;10.850;2023-04-12T00:15:10;2.50;;;2.30;;
19364;SDS011;9818;48.382;10.850;2023-04-12T00:17:39;2.30;;;2.10;;
19364;SDS011;9818;48.382;10.850;2023-04-12T00:20:09;2.80;;;2.50;;
19364;SDS011;9818;48.382;10.850;2023-04-12T00:22:40;3.63;;;2.23;;
19364;SDS011;9818;48.382;10.850;2023-04-12T00:25:09;3.77;;;2.50;;
19364;SDS011;9818;48.382;10.850;2023-04-12T00:27:40;2.60;;;2.00;;
19364;SDS011;9818;48.382;10.850;2023-04-12T00:30:09;2.50;;;2.20;;
19364;SDS011;9818;48.382;10.850;2023-04-12T00:32:39;2.77;;;2.20;;
19364;SDS011;9818;48.382;10.850;2023-04-12T00:35:08;2.43;;;2.17;;
19364;SDS011;9818;48.382;10.850;2023-04-12T00:37:37;3.33;;;2.30;;
19364;SDS011;9818;48.382;10.850;2023-04-12T00:40:07;3.07;;;2.37;;
19364;SDS011;9818;48.382;10.850;2023-04-12T00:42:39;2.90;;;2.43;;
19364;SDS011;9818;48.382;10.850;2023-04-12T00:45:08;3.47;;;2.10;;
19364;SDS011;9818;48.382;10.850;2023-04-12T00:47:38;3.60;;;2.10;;
19364;SDS011;9818;48.382;10.850;2023-04-12T00:50:07;3.10;;;2.30;;
19364;SDS011;9818;48.382;10.850;2023-04-12T00:52:37;2.53;;;2.17;;
19364;SDS011;9818;48.382;10.850;2023-04-12T00:55:07;4.23;;;2.40;;
19364;SDS011;9818;48.382;10.850;2023-04-12T00:57:39;3.00;;;2.53;;
19364;SDS011;9818;48.382;10.850;2023-04-12T01:00:08;3.17;;;2.30;;
19364;SDS011;9818;48.382;10.850;2023-04-12T01:02:41;3.63;;;2.40;;
19364;SDS011;9818;48.382;10.850;2023-04-12T01:05:14;2.50;;;2.30;;
19364;SDS011;9818;48.382;10.850;2023-04-12T01:07:47;3.60;;;2.80;;
19364;SDS011;9818;48.382;10.850;2023-04-12T01:10:30;4.20;;;2.33;;
19364;SDS011;9818;48.382;10.850;2023-04-12T01:13:10;2.53;;;2.20;;
19364;SDS011;9818;48.382;10.850;2023-04-12T01:15:47;3.00;;;2.03;;
19364;SDS011;9818;48.382;10.850;2023-04-12T01:18:21;2.40;;;2.20;;
19364;SDS011;9818;48.382;10.850;2023-04-12T01:20:53;2.57;;;2.23;;
19364;SDS011;9818;48.382;10.850;2023-04-12T01:23:42;2.97;;;2.10;;
19364;SDS011;9818;48.382;10.850;2023-04-12T01:29:10;3.33;;;2.13;;
19364;SDS011;9818;48.382;10.850;2023-04-12T01:31:40;2.97;;;2.20;;
19364;SDS011;9818;48.382;10.850;2023-04-12T01:34:15;2.73;;;2.20;;
19364;SDS011;9818;48.382;10.850;2023-04-12T01:36:45;2.20;;;2.00;;
19364;SDS011;9818;48.382;10.850;2023-04-12T01:39:15;2.57;;;2.20;;
19364;SDS011;9818;48.382;10.850;2023-04-12T01:41:43;2.67;;;2.07;;
19364;SDS011;9818;48.382;10.850;2023-04-12T01:44:16;3.60;;;2.30;;
19364;SDS011;9818;48.382;10.850;2023-04-12T01:46:45;2.07;;;1.80;;
19364;SDS011;9818;48.382;10.850;2023-04-12T01:49:16;2.63;;;1.90;;
19364;SDS011;9818;48.382;10.850;2023-04-12T01:51:49;2.43;;;1.93;;
19364;SDS011;9818;48.382;10.850;2023-04-12T01:54:23;3.73;;;2.40;;
19364;SDS011;9818;48.382;10.850;2023-04-12T01:56:55;2.10;;;1.90;;
19364;SDS011;9818;48.382;10.850;2023-04-12T01:59:29;2.10;;;1.90;;
19364;SDS011;9818;48.382;10.850;2023-04-12T02:02:01;2.73;;;2.10;;
19364;SDS011;9818;48.382;10.850;2023-04-12T02:04:31;2.37;;;2.17;;
19364;SDS011;9818;48.382;10.850;2023-04-12T02:07:00;2.47;;;1.90;;
19364;SDS011;9818;48.382;10.850;2023-04-12T02:09:29;2.00;;;1.80;;
19364;SDS011;9818;48.382;10.850;2023-04-12T02:12:02;3.30;;;2.23;;
19364;SDS011;9818;48.382;10.850;2023-04-12T02:14:34;2.40;;;1.87;;
19364;SDS011;9818;48.382;10.850;2023-04-12T02:17:03;1.97;;;1.80;;
19364;SDS011;9818;48.382;10.850;2023-04-12T02:19:32;2.57;;;2.13;;
19364;SDS011;9818;48.382;10.850;2023-04-12T02:22:01;2.33;;;2.13;;
19364;SDS011;9818;48.382;10.850;2023-04-12T02:24:30;2.47;;;1.80;;
19364;SDS011;9818;48.382;10.850;2023-04-12T02:26:58;2.47;;;1.90;;
19364;SDS011;9818;48.382;10.850;2023-04-12T02:29:28;2.13;;;1.70;;
19364;SDS011;9818;48.382;10.850;2023-04-12T02:31:59;2.93;;;2.10;;
19364;SDS011;9818;48.382;10.850;2023-04-12T02:34:27;3.30;;;1.93;;
19364;SDS011;9818;48.382;10.850;2023-04-12T02:37:00;2.47;;;2.00;;
19364;SDS011;9818;48.382;10.850;2023-04-12T02:39:29;2.53;;;1.97;;
19364;SDS011;9818;48.382;10.850;2023-04-12T02:42:00;2.47;;;1.90;;
19364;SDS011;9818;48.382;10.850;2023-04-12T02:44:29;1.90;;;1.80;;
19364;SDS011;9818;48.382;10.850;2023-04-12T02:47:00;2.03;;;1.83;;
19364;SDS011;9818;48.382;10.850;2023-04-12T02:49:28;1.93;;;1.70;;
19364;SDS011;9818;48.382;10.850;2023-04-12T02:51:57;1.90;;;1.70;;
19364;SDS011;9818;48.382;10.850;2023-04-12T02:54:26;2.43;;;1.90;;
19364;SDS011;9818;48.382;10.850;2023-04-12T02:56:55;1.97;;;1.77;;
19364;SDS011;9818;48.382;10.850;2023-04-12T02:59:23;3.17;;;1.80;;
19364;SDS011;9818;48.382;10.850;2023-04-12T03:01:53;2.03;;;1.70;;
19364;SDS011;9818;48.382;10.850;2023-04-12T03:04:24;1.87;;;1.60;;
19364;SDS011;9818;48.382;10.850;2023-04-12T03:06:54;2.27;;;1.83;;
19364;SDS011;9818;48.382;10.850;2023-04-12T03:09:23;3.20;;;1.90;;
19364;SDS011;9818;48.382;10.850;2023-04-12T03:11:52;2.30;;;1.70;;
19364;SDS011;9818;48.382;10.850;2023-04-12T03:14:20;1.80;;;1.60;;
19364;SDS011;9818;48.382;10.850;2023-04-12T03:16:49;2.20;;;2.00;;
19364;SDS011;9818;48.382;10.850;2023-04-12T03:19:18;2.83;;;1.87;;
19364;SDS011;9818;48.382;10.850;2023-04-12T03:21:49;2.83;;;1.60;;
19364;SDS011;9818;48.382;10.850;2023-04-12T03:24:17;1.60;;;1.50;;
19364;SDS011;9818;48.382;10.850;2023-04-12T03:26:46;2.57;;;1.97;;
19364;SDS011;9818;48.382;10.850;2023-04-12T03:29:16;1.90;;;1.60;;
19364;SDS011;9818;48.382;10.850;2023-04-12T03:31:45;2.03;;;1.60;;
19364;SDS011;9818;48.382;10.850;2023-04-12T03:34:13;2.00;;;1.70;;
19364;SDS011;9818;48.382;10.850;2023-04-12T03:36:42;2.83;;;1.80;;
19364;SDS011;9818;48.382;10.850;2023-04-12T03:39:13;2.37;;;1.80;;
19364;SDS011;9818;48.382;10.850;2023-04-12T03:41:42;2.03;;;1.60;;
19364;SDS011;9818;48.382;10.850;2023-04-12T03:44:10;1.70;;;1.60;;
19364;SDS011;9818;48.382;10.850;2023-04-12T03:46:39;1.63;;;1.53;;
19364;SDS011;9818;48.382;10.850;2023-04-12T03:49:08;2.97;;;1.80;;
19364;SDS011;9818;48.382;10.850;2023-04-12T03:51:37;2.23;;;1.80;;
19364;SDS011;9818;48.382;10.850;2023-04-12T03:54:08;2.03;;;1.67;;
19364;SDS011;9818;48.382;10.850;2023-04-12T03:56:39;1.77;;;1.60;;
19364;SDS011;9818;48.382;10.850;2023-04-12T03:59:08;1.70;;;1.50;;
19364;SDS011;9818;48.382;10.850;2023-04-12T04:01:38;3.07;;;1.80;;
19364;SDS011;9818;48.382;10.850;2023-04-12T04:04:08;3.20;;;2.03;;
19364;SDS011;9818;48.382;10.850;2023-04-12T04:06:36;1.70;;;1.60;;
19364;SDS011;9818;48.382;10.850;2023-04-12T04:09:05;1.90;;;1.50;;
19364;SDS011;9818;48.382;10.850;2023-04-12T04:11:34;2.10;;;1.60;;
19364;SDS011;9818;48.382;10.850;2023-04-12T04:14:05;3.63;;;1.90;;
19364;SDS011;9818;48.382;10.850;2023-04-12T04:16:34;2.27;;;1.53;;
19364;SDS011;9818;48.382;10.850;2023-04-12T04:19:03;1.60;;;1.40;;
19364;SDS011;9818;48.382;10.850;2023-04-12T04:21:32;1.80;;;1.63;;
19364;SDS011;9818;48.382;10.850;2023-04-12T04:24:00;2.23;;;1.73;;
19364;SDS011;9818;48.382;10.850;2023-04-12T04:26:31;1.50;;;1.40;;
19364;SDS011;9818;48.382;10.850;2023-04-12T04:29:05;1.70;;;1.57;;
19364;SDS011;9818;48.382;10.850;2023-04-12T04:31:33;2.67;;;1.70;;
19364;SDS011;9818;48.382;10.850;2023-04-12T04:34:03;1.53;;;1.43;;
19364;SDS011;9818;48.382;10.850;2023-04-12T04:36:33;1.97;;;1.70;;
19364;SDS011;9818;48.382;10.850;2023-04-12T04:39:02;1.87;;;1.67;;
19364;SDS011;9818;48.382;10.850;2023-04-12T04:41:31;2.50;;;1.57;;
19364;SDS011;9818;48.382;10.850;2023-04-12T04:44:06;5.03;;;1.73;;
19364;SDS011;9818;48.382;10.850;2023-04-12T04:46:37;1.63;;;1.50;;
19364;SDS011;9818;48.382;10.850;2023-04-12T04:49:06;1.70;;;1.50;;
19364;SDS011;9818;48.382;10.850;2023-04-12T04:51:35;2.57;;;1.73;;
19364;SDS011;9818;48.382;10.850;2023-04-12T04:54:03;2.10;;;1.47;;
19364;SDS011;9818;48.382;10.850;2023-04-12T04:56:32;1.90;;;1.60;;
19364;SDS011;9818;48.382;10.850;2023-04-12T04:59:01;1.97;;;1.70;;
19364;SDS011;9818;48.382;10.850;2023-04-12T05:01:32;1.70;;;1.43;;
19364;SDS011;9818;48.382;10.850;2023-04-12T05:04:01;2.33;;;1.50;;
19364;SDS011;9818;48.382;10.850;2023-04-12T05:06:30;3.07;;;1.70;;
19364;SDS011;9818;48.382;10.850;2023-04-12T05:08:59;1.50;;;1.40;;
19364;SDS011;9818;48.382;10.850;2023-04-12T05:11:29;1.80;;;1.60;;
19364;SDS011;9818;48.382;10.850;2023-04-12T05:13:58;1.40;;;1.30;;
19364;SDS011;9818;48.382;10.850;2023-04-12T05:16:26;1.83;;;1.37;;
19364;SDS011;9818;48.382;10.850;2023-04-12T05:18:58;1.43;;;1.27;;
19364;SDS011;9818;48.382;10.850;2023-04-12T05:21:26;2.57;;;1.70;;
19364;SDS011;9818;48.382;10.850;2023-04-12T05:23:57;1.40;;;1.30;;
19364;SDS011;9818;48.382;10.850;2023-04-12T05:26:25;1.63;;;1.53;;
19364;SDS011;9818;48.382;10.850;2023-04-12T05:28:54;1.63;;;1.40;;
19364;SDS011;9818;48.382;10.850;2023-04-12T05:31:25;2.33;;;1.50;;
19364;SDS011;9818;48.382;10.850;2023-04-12T05:33:53;2.30;;;1.60;;
19364;SDS011;9818;48.382;10.850;2023-04-12T05:36:25;1.67;;;1.57;;
19364;SDS011;9818;48.382;10.850;2023-04-12T05:38:53;1.30;;;1.17;;
19364;SDS011;9818;48.382;10.850;2023-04-12T05:41:22;1.40;;;1.30;;
19364;SDS011;9818;48.382;10.850;2023-04-12T05:43:51;1.80;;;1.50;;
19364;SDS011;9818;48.382;10.850;2023-04-12T05:46:19;1.80;;;1.30;;
19364;SDS011;9818;48.382;10.850;2023-04-12T05:48:48;2.37;;;1.57;;
19364;SDS011;9818;48.382;10.850;2023-04-12T05:51:17;1.70;;;1.60;;
19364;SDS011;9818;48.382;10.850;2023-04-12T05:53:48;2.13;;;1.47;;
19364;SDS011;9818;48.382;10.850;2023-04-12T05:56:17;2.60;;;1.50;;
19364;SDS011;9818;48.382;10.850;2023-04-12T05:58:45;1.60;;;1.37;;
19364;SDS011;9818;48.382;10.850;2023-04-12T06:01:14;2.00;;;1.40;;
19364;SDS011;9818;48.382;10.850;2023-04-12T06:03:43;1.80;;;1.30;;
19364;SDS011;9818;48.382;10.850;2023-04-12T06:06:12;2.63;;;1.87;;
19364;SDS011;9818;48.382;10.850;2023-04-12T06:08:41;1.50;;;1.40;;
19364;SDS011;9818;48.382;10.850;2023-04-12T06:11:12;1.77;;;1.30;;
19364;SDS011;9818;48.382;10.850;2023-04-12T06:13:41;1.40;;;1.30;;
19364;SDS011;9818;48.382;10.850;2023-04-12T06:16:10;1.67;;;1.50;;
19364;SDS011;9818;48.382;10.850;2023-04-12T06:18:38;1.50;;;1.40;;
19364;SDS011;9818;48.382;10.850;2023-04-12T06:21:07;1.53;;;1.43;;
19364;SDS011;9818;48.382;10.850;2023-04-12T06:23:36;1.27;;;1.17;;
19364;SDS011;9818;48.382;10.850;2023-04-12T06:26:05;1.80;;;1.37;;
19364;SDS011;9818;48.382;10.850;2023-04-12T06:28:36;1.47;;;1.10;;
19364;SDS011;9818;48.382;10.850;2023-04-12T06:31:05;1.97;;;1.43;;
19364;SDS011;9818;48.382;10.850;2023-04-12T06:33:34;2.13;;;1.50;;
19364;SDS011;9818;48.382;10.850;2023-04-12T06:36:03;2.17;;;1.40;;
19364;SDS011;9818;48.382;10.850;2023-04-12T06:38:33;1.77;;;1.27;;
19364;SDS011;9818;48.382;10.850;2023-04-12T06:41:01;1.83;;;1.30;;
19364;SDS011;9818;48.382;10.850;2023-04-12T06:43:30;1.30;;;1.10;;
19364;SDS011;9818;48.382;10.850;2023-04-12T06:46:01;1.30;;;1.20;;
19364;SDS011;9818;48.382;10.850;2023-04-12T06:48:30;1.30;;;1.20;;
19364;SDS011;9818;48.382;10.850;2023-04-12T06:50:59;1.40;;;1.20;;
19364;SDS011;9818;48.382;10.850;2023-04-12T06:53:27;1.47;;;1.20;;
19364;SDS011;9818;48.382;10.850;2023-04-12T06:56:02;2.10;;;1.40;;
19364;SDS011;9818;48.382;10.850;2023-04-12T06:58:30;2.30;;;1.50;;
19364;SDS011;9818;48.382;10.850;2023-04-12T07:01:11;1.93;;;1.37;;
19364;SDS011;9818;48.382;10.850;2023-04-12T07:03:40;2.13;;;1.50;;
19364;SDS011;9818;48.382;10.850;2023-04-12T07:06:08;1.47;;;1.37;;
19364;SDS011;9818;48.382;10.850;2023-04-12T07:08:37;1.30;;;1.20;;
19364;SDS011;9818;48.382;10.850;2023-04-12T07:11:05;1.47;;;1.37;;
19364;SDS011;9818;48.382;10.850;2023-04-12T07:13:34;2.33;;;1.40;;
19364;SDS011;9818;48.382;10.850;2023-04-12T07:16:03;1.43;;;1.20;;
19364;SDS011;9818;48.382;10.850;2023-04-12T07:18:35;1.30;;;1.20;;
19364;SDS011;9818;48.382;10.850;2023-04-12T07:21:04;1.90;;;1.37;;
19364;SDS011;9818;48.382;10.850;2023-04-12T07:23:33;1.70;;;1.40;;
19364;SDS011;9818;48.382;10.850;2023-04-12T07:26:02;1.90;;;1.30;;
19364;SDS011;9818;48.382;10.850;2023-04-12T07:28:31;1.60;;;1.30;;
19364;SDS011;9818;48.382;10.850;2023-04-12T07:31:00;1.57;;;1.40;;
19364;SDS011;9818;48.382;10.850;2023-04-12T07:33:31;2.53;;;1.50;;
19364;SDS011;9818;48.382;10.850;2023-04-12T07:36:04;2.10;;;1.43;;
19364;SDS011;9818;48.382;10.850;2023-04-12T07:38:33;1.60;;;1.40;;
19364;SDS011;9818;48.382;10.850;2023-04-12T07:41:02;1.53;;;1.40;;
19364;SDS011;9818;48.382;10.850;2023-04-12T07:43:31;2.30;;;1.40;;
19364;SDS011;9818;48.382;10.850;2023-04-12T07:45:59;1.43;;;1.30;;
19364;SDS011;9818;48.382;10.850;2023-04-12T07:48:32;2.37;;;1.37;;
19364;SDS011;9818;48.382;10.850;2023-04-12T07:51:01;1.50;;;1.37;;
19364;SDS011;9818;48.382;10.850;2023-04-12T07:53:33;2.03;;;1.40;;
19364;SDS011;9818;48.382;10.850;2023-04-12T07:56:01;1.50;;;1.40;;
19364;SDS011;9818;48.382;10.850;2023-04-12T07:58:31;1.73;;;1.40;;
19364;SDS011;9818;48.382;10.850;2023-04-12T08:01:00;1.73;;;1.33;;
19364;SDS011;9818;48.382;10.850;2023-04-12T08:03:29;1.40;;;1.30;;
19364;SDS011;9818;48.382;10.850;2023-04-12T08:05:58;2.13;;;1.40;;
19364;SDS011;9818;48.382;10.850;2023-04-12T08:08:29;2.67;;;1.30;;
19364;SDS011;9818;48.382;10.850;2023-04-12T08:10:58;1.50;;;1.40;;
19364;SDS011;9818;48.382;10.850;2023-04-12T08:13:29;1.80;;;1.50;;
19364;SDS011;9818;48.382;10.850;2023-04-12T08:15:57;1.60;;;1.50;;
19364;SDS011;9818;48.382;10.850;2023-04-12T08:18:26;1.33;;;1.20;;
19364;SDS011;9818;48.382;10.850;2023-04-12T08:20:56;1.30;;;1.20;;
19364;SDS011;9818;48.382;10.850;2023-04-12T08:23:25;1.43;;;1.30;;
19364;SDS011;9818;48.382;10.850;2023-04-12T08:25:57;1.60;;;1.40;;
19364;SDS011;9818;48.382;10.850;2023-04-12T08:28:27;2.00;;;1.40;;
19364;SDS011;9818;48.382;10.850;2023-04-12T08:30:56;1.53;;;1.40;;
19364;SDS011;9818;48.382;10.850;2023-04-12T08:33:25;1.40;;;1.30;;
19364;SDS011;9818;48.382;10.850;2023-04-12T08:35:57;1.30;;;1.20;;
19364;SDS011;9818;48.382;10.850;2023-04-12T08:38:26;1.77;;;1.33;;
19364;SDS011;9818;48.382;10.850;2023-04-12T08:40:57;1.53;;;1.40;;
19364;SDS011;9818;48.382;10.850;2023-04-12T08:43:27;1.97;;;1.50;;
19364;SDS011;9818;48.382;10.850;2023-04-12T08:45:59;2.57;;;1.10;;
19364;SDS011;9818;48.382;10.850;2023-04-12T08:48:28;2.13;;;1.27;;
19364;SDS011;9818;48.382;10.850;2023-04-12T08:50:57;1.77;;;1.37;;
19364;SDS011;9818;48.382;10.850;2023-04-12T08:53:26;1.83;;;1.17;;
19364;SDS011;9818;48.382;10.850;2023-04-12T08:55:58;1.30;;;1.20;;
19364;SDS011;9818;48.382;10.850;2023-04-12T08:58:27;1.63;;;1.30;;
19364;SDS011;9818;48.382;10.850;2023-04-12T09:00:56;1.33;;;1.23;;
19364;SDS011;9818;48.382;10.850;2023-04-12T09:03:26;1.47;;;1.37;;
19364;SDS011;9818;48.382;10.850;2023-04-12T09:05:55;2.23;;;1.30;;
19364;SDS011;9818;48.382;10.850;2023-04-12T09:08:24;1.50;;;1.40;;
19364;SDS011;9818;48.382;10.850;2023-04-12T09:10:52;1.50;;;1.10;;
19364;SDS011;9818;48.382;10.850;2023-04-12T09:13:32;1.30;;;1.20;;
19364;SDS011;9818;48.382;10.850;2023-04-12T09:16:01;2.50;;;1.40;;
19364;SDS011;9818;48.382;10.850;2023-04-12T09:18:32;1.67;;;1.30;;
19364;SDS011;9818;48.382;10.850;2023-04-12T09:21:15;1.20;;;1.10;;
19364;SDS011;9818;48.382;10.850;2023-04-12T09:23:45;1.40;;;1.27;;
19364;SDS011;9818;48.382;10.850;2023-04-12T09:26:33;1.30;;;1.20;;
19364;SDS011;9818;48.382;10.850;2023-04-12T09:29:04;3.07;;;1.30;;
19364;SDS011;9818;48.382;10.850;2023-04-12T09:31:53;1.57;;;1.20;;
19364;SDS011;9818;48.382;10.850;2023-04-12T09:34:23;1.57;;;1.30;;
19364;SDS011;9818;48.382;10.850;2023-04-12T09:36:51;3.23;;;1.50;;
19364;SDS011;9818;48.382;10.850;2023-04-12T09:39:29;1.73;;;1.50;;
19364;SDS011;9818;48.382;10.850;2023-04-12T09:42:05;1.63;;;1.10;;
19364;SDS011;9818;48.382;10.850;2023-04-12T09:44:37;1.63;;;1.30;;
19364;SDS011;9818;48.382;10.850;2023-04-12T09:47:06;1.50;;;1.40;;
19364;SDS011;9818;48.382;10.850;2023-04-12T09:49:35;2.10;;;1.70;;
19364;SDS011;9818;48.382;10.850;2023-04-12T09:52:05;1.27;;;1.03;;
19364;SDS011;9818;48.382;10.850;2023-04-12T09:54:36;1.30;;;1.20;;
19364;SDS011;9818;48.382;10.850;2023-04-12T09:57:06;1.73;;;1.10;;
19364;SDS011;9818;48.382;10.850;2023-04-12T09:59:38;1.63;;;1.23;;
19364;SDS011;9818;48.382;10.850;2023-04-12T10:02:10;1.47;;;1.20;;
19364;SDS011;9818;48.382;10.850;2023-04-12T10:04:42;2.63;;;1.20;;
19364;SDS011;9818;48.382;10.850;2023-04-12T10:07:12;1.70;;;1.20;;
19364;SDS011;9818;48.382;10.850;2023-04-12T10:09:40;1.40;;;1.30;;
19364;SDS011;9818;48.382;10.850;2023-04-12T10:12:09;1.60;;;1.23;;
19364;SDS011;9818;48.382;10.850;2023-04-12T10:14:40;1.20;;;1.10;;
19364;SDS011;9818;48.382;10.850;2023-04-12T10:17:10;2.30;;;1.50;;
19364;SDS011;9818;48.382;10.850;2023-04-12T10:19:41;2.90;;;1.20;;
19364;SDS011;9818;48.382;10.850;2023-04-12T10:22:11;1.30;;;1.20;;
19364;SDS011;9818;48.382;10.850;2023-04-12T10:24:40;1.60;;;1.37;;
19364;SDS011;9818;48.382;10.850;2023-04-12T10:27:10;1.57;;;1.30;;
19364;SDS011;9818;48.382;10.850;2023-04-12T10:29:43;1.40;;;1.30;;
19364;SDS011;9818;48.382;10.850;2023-04-12T10:32:19;2.00;;;1.20;;
19364;SDS011;9818;48.382;10.850;2023-04-12T10:34:49;1.47;;;1.20;;
19364;SDS011;9818;48.382;10.850;2023-04-12T10:37:20;1.33;;;1.23;;
19364;SDS011;9818;48.382;10.850;2023-04-12T10:39:52;1.30;;;1.20;;
19364;SDS011;9818;48.382;10.850;2023-04-12T10:42:22;1.20;;;1.10;;
19364;SDS011;9818;48.382;10.850;2023-04-12T10:44:55;2.27;;;1.20;;
19364;SDS011;9818;48.382;10.850;2023-04-12T10:47:56;1.17;;;1.07;;
19364;SDS011;9818;48.382;10.850;2023-04-12T10:50:31;1.30;;;1.20;;
19364;SDS011;9818;48.382;10.850;2023-04-12T10:55:53;1.87;;;1.10;;
19364;SDS011;9818;48.382;10.850;2023-04-12T11:01:23;1.20;;;1.10;;
19364;SDS011;9818;48.382;10.850;2023-04-12T11:06:39;2.57;;;1.30;;
19364;SDS011;9818;48.382;10.850;2023-04-12T11:09:21;1.57;;;1.40;;
19364;SDS011;9818;48.382;10.850;2023-04-12T11:11:54;1.20;;;1.10;;
19364;SDS011;9818;48.382;10.850;2023-04-12T11:14:42;1.30;;;1.20;;
19364;SDS011;9818;48.382;10.850;2023-04-12T11:17:27;1.30;;;1.20;;
19364;SDS011;9818;48.382;10.850;2023-04-12T11:19:58;1.40;;;1.30;;
19364;SDS011;9818;48.382;10.850;2023-04-12T11:22:30;1.53;;;1.10;;
19364;SDS011;9818;48.382;10.850;2023-04-12T11:25:00;1.67;;;1.10;;
19364;SDS011;9818;48.382;10.850;2023-04-12T11:27:29;1.17;;;1.10;;
19364;SDS011;9818;48.382;10.850;2023-04-12T11:29:59;1.30;;;1.20;;
19364;SDS011;9818;48.382;10.850;2023-04-12T11:32:30;1.20;;;1.10;;
19364;SDS011;9818;48.382;10.850;2023-04-12T11:35:00;1.20;;;1.10;;
19364;SDS011;9818;48.382;10.850;2023-04-12T11:37:29;1.67;;;1.07;;
19364;SDS011;9818;48.382;10.850;2023-04-12T11:39:59;1.30;;;1.20;;
19364;SDS011;9818;48.382;10.850;2023-04-12T11:42:30;1.47;;;1.20;;
19364;SDS011;9818;48.382;10.850;2023-04-12T11:45:00;1.30;;;1.10;;
19364;SDS011;9818;48.382;10.850;2023-04-12T11:47:31;1.30;;;1.10;;
19364;SDS011;9818;48.382;10.850;2023-04-12T11:50:00;1.10;;;1.00;;
19364;SDS011;9818;48.382;10.850;2023-04-12T11:52:29;1.07;;;1.00;;
19364;SDS011;9818;48.382;10.850;2023-04-12T11:54:59;2.30;;;1.30;;
19364;SDS011;9818;48.382;10.850;2023-04-12T11:57:30;1.20;;;1.10;;
19364;SDS011;9818;48.382;10.850;2023-04-12T12:00:00;1.40;;;1.13;;
19364;SDS011;9818;48.382;10.850;2023-04-12T12:02:33;1.20;;;1.10;;
19364;SDS011;9818;48.382;10.850;2023-04-12T12:05:02;1.27;;;1.17;;
19364;SDS011;9818;48.382;10.850;2023-04-12T12:07:34;1.37;;;1.10;;
19364;SDS011;9818;48.382;10.850;2023-04-12T12:10:04;1.73;;;1.20;;
19364;SDS011;9818;48.382;10.850;2023-04-12T12:12:34;1.40;;;1.10;;
19364;SDS011;9818;48.382;10.850;2023-04-12T12:15:03;1.40;;;1.30;;
19364;SDS011;9818;48.382;10.850;2023-04-12T12:17:37;1.40;;;1.30;;
19364;SDS011;9818;48.382;10.850;2023-04-12T12:20:06;1.30;;;1.20;;
19364;SDS011;9818;48.382;10.850;2023-04-12T12:22:46;1.30;;;1.10;;
19364;SDS011;9818;48.382;10.850;2023-04-12T12:25:16;1.20;;;1.10;;
19364;SDS011;9818;48.382;10.850;2023-04-12T12:27:45;1.30;;;1.20;;
19364;SDS011;9818;48.382;10.850;2023-04-12T12:30:15;1.23;;;1.10;;
19364;SDS011;9818;48.382;10.850;2023-04-12T12:32:48;1.40;;;1.30;;
19364;SDS011;9818;48.382;10.850;2023-04-12T12:35:17;1.33;;;1.23;;
19364;SDS011;9818;48.382;10.850;2023-04-12T12:37:50;1.30;;;1.10;;
19364;SDS011;9818;48.382;10.850;2023-04-12T12:40:27;1.27;;;1.17;;
19364;SDS011;9818;48.382;10.850;2023-04-12T12:42:56;2.07;;;1.40;;
19364;SDS011;9818;48.382;10.850;2023-04-12T12:45:26;1.03;;;1.00;;
19364;SDS011;9818;48.382;10.850;2023-04-12T12:47:59;1.33;;;1.23;;
19364;SDS011;9818;48.382;10.850;2023-04-12T12:50:29;1.20;;;1.10;;
19364;SDS011;9818;48.382;10.850;2023-04-12T12:52:58;1.57;;;1.20;;
19364;SDS011;9818;48.382;10.850;2023-04-12T12:55:30;1.37;;;1.27;;
19364;SDS011;9818;48.382;10.850;2023-04-12T12:57:58;1.70;;;1.40;;
19364;SDS011;9818;48.382;10.850;2023-04-12T13:00:27;1.20;;;1.10;;
19364;SDS011;9818;48.382;10.850;2023-04-12T13:02:59;1.97;;;1.33;;
19364;SDS011;9818;48.382;10.850;2023-04-12T13:05:27;1.43;;;1.33;;
19364;SDS011;9818;48.382;10.850;2023-04-12T13:07:56;1.93;;;1.40;;
19364;SDS011;9818;48.382;10.850;2023-04-12T13:10:25;1.37;;;1.27;;
19364;SDS011;9818;48.382;10.850;2023-04-12T13:12:53;1.30;;;1.20;;
19364;SDS011;9818;48.382;10.850;2023-04-12T13:15:22;1.37;;;1.23;;
19364;SDS011;9818;48.382;10.850;2023-04-12T13:17:51;1.40;;;1.30;;
19364;SDS011;9818;48.382;10.850;2023-04-12T13:20:23;1.43;;;1.20;;
19364;SDS011;9818;48.382;10.850;2023-04-12T13:22:52;1.30;;;1.20;;
19364;SDS011;9818;48.382;10.850;2023-04-12T13:25:21;1.30;;;1.20;;
19364;SDS011;9818;48.382;10.850;2023-04-12T13:27:50;1.53;;;1.10;;
19364;SDS011;9818;48.382;10.850;2023-04-12T13:30:19;1.30;;;1.20;;
19364;SDS011;9818;48.382;10.850;2023-04-12T13:32:48;1.30;;;1.10;;
19364;SDS011;9818;48.382;10.850;2023-04-12T13:35:16;1.40;;;1.30;;
19364;SDS011;9818;48.382;10.850;2023-04-12T13:37:48;2.10;;;1.10;;
19364;SDS011;9818;48.382;10.850;2023-04-12T13:40:16;2.07;;;1.50;;
19364;SDS011;9818;48.382;10.850;2023-04-12T13:42:45;1.00;;;1.00;;
19364;SDS011;9818;48.382;10.850;2023-04-12T13:45:14;1.43;;;1.00;;
19364;SDS011;9818;48.382;10.850;2023-04-12T13:47:43;1.47;;;1.30;;
19364;SDS011;9818;48.382;10.850;2023-04-12T13:50:11;1.23;;;1.00;;
19364;SDS011;9818;48.382;10.850;2023-04-12T13:52:43;1.40;;;1.30;;
19364;SDS011;9818;48.382;10.850;2023-04-12T13:55:14;1.20;;;1.00;;
19364;SDS011;9818;48.382;10.850;2023-04-12T13:57:43;1.10;;;1.00;;
19364;SDS011;9818;48.382;10.850;2023-04-12T14:00:12;2.43;;;1.13;;
19364;SDS011;9818;48.382;10.850;2023-04-12T14:02:41;1.10;;;1.00;;
19364;SDS011;9818;48.382;10.850;2023-04-12T14:05:10;2.83;;;1.10;;
19364;SDS011;9818;48.382;10.850;2023-04-12T14:07:39;7.37;;;1.30;;
19364;SDS011;9818;48.382;10.850;2023-04-12T14:10:08;1.33;;;0.93;;
19364;SDS011;9818;48.382;10.850;2023-04-12T14:12:40;2.80;;;1.10;;
19364;SDS011;9818;48.382;10.850;2023-04-12T14:15:08;6.73;;;1.30;;
19364;SDS011;9818;48.382;10.850;2023-04-12T14:17:37;7.67;;;1.50;;
19364;SDS011;9818;48.382;10.850;2023-04-12T14:20:07;8.10;;;1.30;;
19364;SDS011;9818;48.382;10.850;2023-04-12T14:22:37;5.70;;;1.40;;
19364;SDS011;9818;48.382;10.850;2023-04-12T14:25:06;4.30;;;1.67;;
19364;SDS011;9818;48.382;10.850;2023-04-12T14:27:35;3.07;;;1.20;;
19364;SDS011;9818;48.382;10.850;2023-04-12T14:30:07;5.43;;;1.13;;
19364;SDS011;9818;48.382;10.850;2023-04-12T14:32:36;2.50;;;1.27;;
19364;SDS011;9818;48.382;10.850;2023-04-12T14:35:05;4.13;;;1.17;;
19364;SDS011;9818;48.382;10.850;2023-04-12T14:37:34;3.97;;;1.23;;
19364;SDS011;9818;48.382;10.850;2023-04-12T14:40:03;1.53;;;1.10;;
19364;SDS011;9818;48.382;10.850;2023-04-12T14:42:33;3.77;;;1.00;;
19364;SDS011;9818;48.382;10.850;2023-04-12T14:45:02;3.57;;;1.20;;
19364;SDS011;9818;48.382;10.850;2023-04-12T14:47:34;4.37;;;1.50;;
19364;SDS011;9818;48.382;10.850;2023-04-12T14:50:03;1.83;;;1.20;;
19364;SDS011;9818;48.382;10.850;2023-04-12T14:52:33;3.97;;;1.10;;
19364;SDS011;9818;48.382;10.850;2023-04-12T14:55:01;1.93;;;1.03;;
19364;SDS011;9818;48.382;10.850;2023-04-12T14:57:32;3.50;;;1.20;;
19364;SDS011;9818;48.382;10.850;2023-04-12T15:00:01;2.10;;;1.30;;
19364;SDS011;9818;48.382;10.850;2023-04-12T15:02:39;1.60;;;1.20;;
19364;SDS011;9818;48.382;10.850;2023-04-12T15:05:10;2.97;;;1.40;;
19364;SDS011;9818;48.382;10.850;2023-04-12T15:07:38;1.30;;;1.20;;
19364;SDS011;9818;48.382;10.850;2023-04-12T15:10:07;1.50;;;1.40;;
19364;SDS011;9818;48.382;10.850;2023-04-12T15:12:40;2.33;;;1.23;;
19364;SDS011;9818;48.382;10.850;2023-04-12T15:15:09;2.60;;;1.93;;
19364;SDS011;9818;48.382;10.850;2023-04-12T15:17:42;3.50;;;1.53;;